CheckWX is a tool to help pilots better visualize weather data.  It is not intended as a substitute for an official pre-flight weather briefing.

13:55:06 UTC

KFOE METAR
Topeka Regional Airport
Topeka, Kansas, USA
Current

1 hour ago

KFOE 261253Z 00000KT 6SM BR BKN120 M03/M04 A2998 RMK AO2 SLP162 T10281044
Observed
Jan-26 @ 12:53 UTC
Visibility
6 SM
Flight Rules
VFR
Conditions
Mist
Cloud Levels
  • Broken at 12,000' AGL
Temperature
-3°C / 27°F
Dewpoint
-4°C / 25°F
Humidity
93%
Altimeter
29.98" Hg
Pressure
1015.22 hPa
Previous

2 hours ago

KFOE 261153Z 00000KT 3SM BR BKN120 M03/M04 A2998 RMK AO2 SLP163 I1000 I6000 T10331044 11006 21039 55003
Observed
Jan-26 @ 11:53 UTC
Visibility
3 SM
Flight Rules
MVFR
Conditions
Mist
Cloud Levels
  • Broken at 12,000' AGL
Temperature
-3°C / 27°F
Dewpoint
-4°C / 25°F
Humidity
93%
Altimeter
29.98" Hg
Pressure
1015.22 hPa
Previous

3 hours ago

KFOE 261103Z AUTO 00000KT 3SM BR FEW003 BKN110 M03/M04 A2998 RMK AO2 T10281044
Observed
Jan-26 @ 11:03 UTC
Visibility
3 SM
Flight Rules
MVFR
Conditions
Mist
Cloud Levels
  • Few at 300' AGL
  • Broken at 11,000' AGL
Temperature
-3°C / 27°F
Dewpoint
-4°C / 25°F
Humidity
93%
Altimeter
29.98" Hg
Pressure
1015.22 hPa